createdAt,value
2023-10-04T00:01:41.442Z,100.00
2023-10-04T00:05:44.592Z,100.00
2023-10-04T00:09:47.430Z,100.00
2023-10-04T00:13:52.646Z,100.00
2023-10-04T00:17:56.143Z,100.00
2023-10-04T00:21:59.554Z,100.00
2023-10-04T00:26:02.360Z,100.00
2023-10-04T00:30:08.438Z,100.00
2023-10-04T00:34:11.182Z,100.00
2023-10-04T00:38:16.418Z,100.00
2023-10-04T00:42:21.640Z,100.00
2023-10-04T00:46:26.346Z,100.00
2023-10-04T00:50:33.014Z,100.00
2023-10-04T00:54:36.465Z,100.00
2023-10-04T00:58:39.828Z,100.00
2023-10-04T01:02:44.098Z,100.00
2023-10-04T01:06:47.039Z,100.00
2023-10-04T01:10:51.906Z,100.00
2023-10-04T01:14:55.101Z,100.00
2023-10-04T01:19:00.206Z,100.00
2023-10-04T01:23:07.171Z,100.00
2023-10-04T01:27:10.151Z,100.00
2023-10-04T01:31:13.060Z,100.00
2023-10-04T01:35:16.111Z,100.00
2023-10-04T01:39:21.798Z,100.00
2023-10-04T01:43:26.430Z,100.00
2023-10-04T01:47:31.741Z,100.00
2023-10-04T01:51:34.601Z,100.00
2023-10-04T01:55:38.859Z,100.00
2023-10-04T01:59:41.639Z,100.00
2023-10-04T02:03:44.456Z,100.00
2023-10-04T02:07:47.341Z,100.00
2023-10-04T02:11:52.135Z,100.00
2023-10-04T02:15:56.116Z,100.00
2023-10-04T02:19:58.810Z,100.00
2023-10-04T02:24:03.524Z,100.00
2023-10-04T02:28:12.277Z,100.00
2023-10-04T02:32:15.044Z,100.00
2023-10-04T02:36:17.922Z,100.00
2023-10-04T02:40:22.696Z,100.00
2023-10-04T02:44:27.012Z,100.00
2023-10-04T02:48:31.962Z,100.00
2023-10-04T02:52:36.936Z,100.00
2023-10-04T02:56:47.053Z,100.00
2023-10-04T03:00:52.052Z,100.00
2023-10-04T03:04:55.097Z,100.00
2023-10-04T03:08:58.414Z,100.00
2023-10-04T03:13:02.352Z,100.00
2023-10-04T03:17:10.310Z,100.00
2023-10-04T03:21:21.472Z,100.00
2023-10-04T03:25:27.541Z,100.00
2023-10-04T03:29:30.996Z,100.00
2023-10-04T03:33:36.650Z,100.00
2023-10-04T03:37:45.338Z,100.00
2023-10-04T03:41:48.763Z,100.00
2023-10-04T03:45:52.424Z,100.00
2023-10-04T03:49:56.587Z,100.00
2023-10-04T03:53:59.418Z,100.00
2023-10-04T03:58:02.218Z,100.00
2023-10-04T04:02:06.950Z,100.00
2023-10-04T04:06:13.076Z,100.00
2023-10-04T04:10:18.233Z,100.00
2023-10-04T04:14:21.238Z,100.00
2023-10-04T04:18:24.953Z,100.00
2023-10-04T04:22:29.727Z,100.00
2023-10-04T04:26:34.824Z,100.00
2023-10-04T04:30:39.174Z,100.00
2023-10-04T04:34:43.200Z,100.00
2023-10-04T04:38:48.788Z,100.00
2023-10-04T04:42:51.769Z,100.00
2023-10-04T04:46:54.906Z,100.00
2023-10-04T04:50:59.261Z,100.00
2023-10-04T04:55:03.900Z,100.00
2023-10-04T04:59:09.254Z,100.00
2023-10-04T05:03:13.048Z,100.00
2023-10-04T05:07:16.135Z,100.00
2023-10-04T05:11:20.562Z,100.00
2023-10-04T05:15:33.484Z,100.00
2023-10-04T05:19:36.482Z,100.00
2023-10-04T05:23:40.122Z,100.00
2023-10-04T05:27:44.828Z,100.00
2023-10-04T05:31:48.875Z,100.00
2023-10-04T05:35:54.627Z,100.00
2023-10-04T05:39:57.411Z,100.00
2023-10-04T05:44:01.769Z,100.00
2023-10-04T05:48:06.249Z,100.00
2023-10-04T05:52:09.401Z,100.00
2023-10-04T05:56:12.100Z,100.00
2023-10-04T06:00:25.368Z,100.00
2023-10-04T06:04:28.518Z,100.00
2023-10-04T06:08:31.307Z,100.00
2023-10-04T06:12:34.955Z,100.00
2023-10-04T06:16:39.692Z,100.00
2023-10-04T06:20:43.332Z,100.00
2023-10-04T06:24:46.973Z,100.00
2023-10-04T06:28:51.476Z,100.00
2023-10-04T06:32:56.495Z,100.00
2023-10-04T06:36:59.612Z,100.00
2023-10-04T06:41:04.416Z,100.00
2023-10-04T06:45:10.655Z,100.00
2023-10-04T06:49:15.527Z,100.00
2023-10-04T06:53:18.373Z,100.00
2023-10-04T06:57:21.904Z,100.00
2023-10-04T07:01:25.304Z,100.00
2023-10-04T07:05:33.862Z,100.00
2023-10-04T07:09:36.677Z,100.00
2023-10-04T07:13:40.419Z,100.00
2023-10-04T07:17:44.218Z,100.00
2023-10-04T07:21:48.588Z,100.00
2023-10-04T07:25:51.666Z,100.00
2023-10-04T07:29:55.313Z,100.00
2023-10-04T07:33:58.436Z,100.00
2023-10-04T07:38:05.362Z,100.00
2023-10-04T07:42:08.793Z,100.00
2023-10-04T07:46:11.790Z,100.00
2023-10-04T07:50:16.515Z,100.00
2023-10-04T07:54:20.730Z,100.00
2023-10-04T07:58:23.526Z,100.00
2023-10-04T08:02:26.306Z,100.00
2023-10-04T08:06:29.134Z,100.00
2023-10-04T08:10:35.188Z,100.00
2023-10-04T08:14:38.237Z,100.00
2023-10-04T08:18:41.083Z,100.00
2023-10-04T08:22:44.557Z,100.00
2023-10-04T08:26:50.076Z,100.00
2023-10-04T08:30:53.356Z,100.00
2023-10-04T08:34:56.646Z,100.00
2023-10-04T08:39:00.898Z,100.00
2023-10-04T08:43:05.500Z,100.00
2023-10-04T08:47:09.737Z,100.00
2023-10-04T08:51:18.284Z,100.00
2023-10-04T08:55:23.344Z,100.00
2023-10-04T08:59:29.138Z,100.00
2023-10-04T09:03:32.393Z,100.00
2023-10-04T09:07:35.821Z,100.00
2023-10-04T09:11:38.714Z,100.00
2023-10-04T09:15:43.636Z,100.00
2023-10-04T09:19:48.320Z,100.00
2023-10-04T09:24:06.782Z,100.00
2023-10-04T09:28:10.757Z,100.00
2023-10-04T09:32:15.038Z,100.00
2023-10-04T09:36:33.447Z,100.00
2023-10-04T09:40:36.295Z,100.00
2023-10-04T09:44:39.111Z,100.00
2023-10-04T09:48:46.346Z,100.00
2023-10-04T09:52:49.582Z,100.00
2023-10-04T09:56:54.697Z,100.00
2023-10-04T10:00:57.696Z,100.00
2023-10-04T10:05:02.478Z,100.00
2023-10-04T10:09:12.628Z,100.00
2023-10-04T10:13:16.898Z,100.00
2023-10-04T10:17:19.821Z,100.00
2023-10-04T10:21:23.959Z,100.00
2023-10-04T10:25:27.037Z,100.00
2023-10-04T10:29:30.662Z,100.00
2023-10-04T10:33:33.658Z,100.00
2023-10-04T10:37:39.765Z,100.00
2023-10-04T10:42:05.018Z,96.92
2023-10-04T10:46:29.959Z,95.90
2023-10-04T10:50:36.965Z,91.21
2023-10-04T10:54:41.375Z,93.14
2023-10-04T10:58:51.014Z,91.63
2023-10-04T11:02:55.608Z,86.64
2023-10-04T11:06:58.755Z,90.43
2023-10-04T11:11:02.866Z,86.25
2023-10-04T11:15:07.770Z,86.54
2023-10-04T11:19:13.726Z,85.04
2023-10-04T11:23:16.882Z,83.87
2023-10-04T11:27:23.998Z,86.92
2023-10-04T11:31:33.029Z,81.54
2023-10-04T11:35:42.183Z,93.58
2023-10-04T11:39:46.026Z,88.43
2023-10-04T11:43:52.838Z,90.37
2023-10-04T11:48:00.038Z,90.06
2023-10-04T11:52:05.225Z,90.09
2023-10-04T11:56:10.264Z,86.78
2023-10-04T12:00:30.391Z,88.19
2023-10-04T12:04:34.322Z,82.89
2023-10-04T12:08:41.302Z,84.64
2023-10-04T12:12:44.638Z,80.62
2023-10-04T12:16:49.144Z,80.17
2023-10-04T12:20:51.920Z,77.98
2023-10-04T12:24:55.488Z,77.83
2023-10-04T12:28:59.218Z,79.38
2023-10-04T12:33:03.982Z,75.18
2023-10-04T12:37:08.322Z,76.68
2023-10-04T12:41:11.497Z,76.15
2023-10-04T12:45:16.730Z,75.00
2023-10-04T12:49:21.142Z,76.45
2023-10-04T12:53:23.850Z,74.83
2023-10-04T12:57:28.965Z,76.68
2023-10-04T13:01:33.237Z,74.56
2023-10-04T13:05:39.054Z,73.51
2023-10-04T13:09:57.865Z,71.58
2023-10-04T13:14:02.224Z,71.28
2023-10-04T13:18:09.192Z,79.34
2023-10-04T13:22:13.521Z,78.94
2023-10-04T13:26:16.722Z,78.83
2023-10-04T13:30:19.680Z,81.18
2023-10-04T13:34:22.549Z,76.37
2023-10-04T13:38:26.747Z,77.08
2023-10-04T13:42:29.836Z,74.30
2023-10-04T13:46:33.021Z,75.29
2023-10-04T13:50:35.829Z,76.83
2023-10-04T13:54:41.901Z,75.47
2023-10-04T13:58:44.633Z,77.13
2023-10-04T14:02:47.453Z,77.50
2023-10-04T14:06:50.244Z,77.32
2023-10-04T14:10:54.379Z,77.38
2023-10-04T14:14:57.067Z,79.19
2023-10-04T14:19:00.239Z,80.75
2023-10-04T14:23:08.754Z,81.44
2023-10-04T14:27:12.798Z,75.17
2023-10-04T14:31:15.709Z,76.45
2023-10-04T14:35:18.788Z,77.31
2023-10-04T14:39:24.743Z,76.38
2023-10-04T14:43:29.892Z,75.64
2023-10-04T14:47:33.180Z,78.07
2023-10-04T14:51:36.873Z,77.96
2023-10-04T14:55:39.583Z,77.11
2023-10-04T14:59:44.113Z,79.08
2023-10-04T15:03:48.852Z,82.43
2023-10-04T15:07:52.729Z,82.51
2023-10-04T15:11:55.484Z,81.35
2023-10-04T15:16:10.146Z,82.78
2023-10-04T15:20:17.537Z,80.81
2023-10-04T15:24:23.428Z,84.33
2023-10-04T15:28:27.764Z,83.64
2023-10-04T15:32:33.543Z,83.56
2023-10-04T15:36:36.342Z,83.54
2023-10-04T15:40:40.861Z,82.74
2023-10-04T15:44:43.758Z,82.69
2023-10-04T15:48:48.060Z,82.91
2023-10-04T15:52:51.027Z,79.79
2023-10-04T15:56:54.002Z,87.40
2023-10-04T16:00:57.748Z,92.13
2023-10-04T16:05:02.192Z,93.94
2023-10-04T16:09:07.937Z,96.39
2023-10-04T16:13:10.907Z,99.33
2023-10-04T16:17:13.915Z,100.00
2023-10-04T16:21:22.285Z,100.00
2023-10-04T16:25:25.144Z,100.00
2023-10-04T16:29:27.885Z,100.00
2023-10-04T16:33:30.755Z,100.00
2023-10-04T16:37:34.908Z,100.00
2023-10-04T16:41:39.659Z,100.00
2023-10-04T16:45:43.773Z,100.00
2023-10-04T16:49:46.716Z,100.00
2023-10-04T16:53:50.864Z,100.00
2023-10-04T16:57:53.691Z,100.00
2023-10-04T17:01:56.750Z,100.00
2023-10-04T17:05:59.582Z,100.00
2023-10-04T17:10:04.138Z,100.00
2023-10-04T17:14:07.104Z,100.00
2023-10-04T17:18:09.894Z,100.00
2023-10-04T17:22:13.494Z,100.00
2023-10-04T17:26:17.945Z,100.00
2023-10-04T17:30:21.542Z,100.00
2023-10-04T17:34:24.431Z,100.00
2023-10-04T17:38:27.528Z,100.00
2023-10-04T17:42:32.200Z,100.00
2023-10-04T17:46:35.788Z,100.00
2023-10-04T17:50:40.029Z,100.00
2023-10-04T17:54:42.809Z,100.00
2023-10-04T17:58:47.003Z,100.00
2023-10-04T18:02:50.761Z,100.00
2023-10-04T18:06:53.797Z,100.00
2023-10-04T18:10:56.699Z,100.00
2023-10-04T18:15:00.918Z,100.00
2023-10-04T18:19:04.418Z,100.00
2023-10-04T18:23:07.190Z,100.00
2023-10-04T18:27:09.969Z,100.00
2023-10-04T18:31:15.357Z,100.00
2023-10-04T18:35:18.965Z,100.00
2023-10-04T18:39:22.155Z,100.00
2023-10-04T18:43:24.999Z,100.00
2023-10-04T18:47:29.352Z,100.00
2023-10-04T18:51:32.982Z,100.00
2023-10-04T18:55:42.035Z,100.00
2023-10-04T18:59:45.020Z,100.00
2023-10-04T19:03:49.793Z,100.00
2023-10-04T19:07:52.726Z,100.00
2023-10-04T19:11:56.611Z,100.00
2023-10-04T19:15:59.462Z,100.00
2023-10-04T19:20:06.050Z,100.00
2023-10-04T19:24:09.647Z,100.00
2023-10-04T19:28:16.425Z,100.00
2023-10-04T19:32:19.168Z,100.00
2023-10-04T19:36:23.749Z,100.00
2023-10-04T19:40:26.636Z,100.00
2023-10-04T19:44:31.728Z,100.00
2023-10-04T19:48:34.940Z,100.00
2023-10-04T19:52:39.083Z,100.00
2023-10-04T19:56:41.770Z,100.00
2023-10-04T20:00:45.467Z,100.00
2023-10-04T20:04:48.511Z,100.00
2023-10-04T20:08:52.897Z,100.00
2023-10-04T20:12:59.045Z,100.00
2023-10-04T20:17:01.889Z,100.00
2023-10-04T20:21:05.925Z,100.00
2023-10-04T20:25:14.543Z,100.00
2023-10-04T20:29:17.418Z,100.00
2023-10-04T20:33:21.096Z,100.00
2023-10-04T20:37:25.402Z,100.00
2023-10-04T20:41:29.839Z,100.00
2023-10-04T20:45:32.725Z,100.00
2023-10-04T20:49:35.721Z,100.00
2023-10-04T20:53:38.698Z,100.00
2023-10-04T20:57:42.915Z,100.00
2023-10-04T21:01:48.579Z,100.00
2023-10-04T21:05:52.920Z,100.00
2023-10-04T21:09:55.653Z,100.00
2023-10-04T21:13:59.903Z,100.00
2023-10-04T21:18:03.257Z,100.00
2023-10-04T21:22:06.276Z,100.00
2023-10-04T21:26:09.290Z,100.00
2023-10-04T21:30:14.067Z,100.00
2023-10-04T21:34:18.395Z,100.00
2023-10-04T21:38:27.320Z,100.00
2023-10-04T21:42:30.228Z,100.00
2023-10-04T21:46:39.376Z,100.00
2023-10-04T21:50:42.291Z,100.00
2023-10-04T21:54:45.862Z,100.00
2023-10-04T21:58:48.556Z,100.00
2023-10-04T22:02:56.790Z,100.00
2023-10-04T22:07:18.480Z,100.00
2023-10-04T22:11:24.305Z,100.00
2023-10-04T22:15:27.136Z,100.00
2023-10-04T22:19:32.472Z,100.00
2023-10-04T22:23:35.348Z,100.00
2023-10-04T22:27:40.064Z,100.00
2023-10-04T22:31:42.842Z,100.00
2023-10-04T22:35:48.057Z,100.00
2023-10-04T22:39:56.281Z,100.00
2023-10-04T22:44:01.238Z,100.00
2023-10-04T22:48:04.748Z,100.00
2023-10-04T22:52:09.049Z,100.00
2023-10-04T22:56:13.872Z,100.00
2023-10-04T23:00:17.433Z,100.00
2023-10-04T23:04:20.395Z,100.00
2023-10-04T23:08:26.089Z,100.00
2023-10-04T23:12:29.991Z,100.00
2023-10-04T23:16:33.865Z,100.00
2023-10-04T23:20:39.136Z,100.00
2023-10-04T23:24:45.408Z,100.00
2023-10-04T23:28:48.286Z,100.00
2023-10-04T23:32:51.807Z,100.00
2023-10-04T23:36:54.735Z,100.00
2023-10-04T23:41:06.772Z,100.00
2023-10-04T23:45:18.406Z,100.00
2023-10-04T23:49:22.449Z,100.00
2023-10-04T23:53:48.395Z,100.00
2023-10-04T23:57:52.724Z,100.00
